sensor_id;sensor_type;location;lat;lon;timestamp;P1;durP1;ratioP1;P2;durP2;ratioP2
9974;SDS011;5028;50.974;4.968;2022-07-24T00:01:52;4.90;;;4.33;;
9974;SDS011;5028;50.974;4.968;2022-07-24T00:04:21;5.20;;;4.70;;
9974;SDS011;5028;50.974;4.968;2022-07-24T00:07:01;6.07;;;5.33;;
9974;SDS011;5028;50.974;4.968;2022-07-24T00:09:32;6.07;;;5.47;;
9974;SDS011;5028;50.974;4.968;2022-07-24T00:12:08;6.53;;;5.90;;
9974;SDS011;5028;50.974;4.968;2022-07-24T00:14:36;6.43;;;5.83;;
9974;SDS011;5028;50.974;4.968;2022-07-24T00:17:11;7.20;;;6.50;;
9974;SDS011;5028;50.974;4.968;2022-07-24T00:19:40;7.50;;;6.60;;
9974;SDS011;5028;50.974;4.968;2022-07-24T00:22:14;8.40;;;7.60;;
9974;SDS011;5028;50.974;4.968;2022-07-24T00:24:45;8.67;;;7.97;;
9974;SDS011;5028;50.974;4.968;2022-07-24T00:27:21;8.90;;;8.10;;
9974;SDS011;5028;50.974;4.968;2022-07-24T00:29:50;8.73;;;7.90;;
9974;SDS011;5028;50.974;4.968;2022-07-24T00:32:24;9.67;;;8.67;;
9974;SDS011;5028;50.974;4.968;2022-07-24T00:34:52;10.23;;;9.23;;
9974;SDS011;5028;50.974;4.968;2022-07-24T00:37:27;10.67;;;9.67;;
9974;SDS011;5028;50.974;4.968;2022-07-24T00:39:55;11.63;;;10.60;;
9974;SDS011;5028;50.974;4.968;2022-07-24T00:42:31;11.33;;;10.30;;
9974;SDS011;5028;50.974;4.968;2022-07-24T00:45:00;13.63;;;12.23;;
9974;SDS011;5028;50.974;4.968;2022-07-24T00:47:56;15.40;;;13.83;;
9974;SDS011;5028;50.974;4.968;2022-07-24T00:50:24;15.40;;;14.00;;
9974;SDS011;5028;50.974;4.968;2022-07-24T00:52:59;18.20;;;15.13;;
9974;SDS011;5028;50.974;4.968;2022-07-24T00:55:27;16.27;;;14.77;;
9974;SDS011;5028;50.974;4.968;2022-07-24T00:58:03;17.27;;;15.77;;
9974;SDS011;5028;50.974;4.968;2022-07-24T01:00:32;17.23;;;15.53;;
9974;SDS011;5028;50.974;4.968;2022-07-24T01:03:06;22.20;;;19.90;;
9974;SDS011;5028;50.974;4.968;2022-07-24T01:05:35;26.33;;;23.33;;
9974;SDS011;5028;50.974;4.968;2022-07-24T01:08:09;27.27;;;24.43;;
9974;SDS011;5028;50.974;4.968;2022-07-24T01:10:39;28.90;;;25.87;;
9974;SDS011;5028;50.974;4.968;2022-07-24T01:13:16;31.13;;;26.37;;
9974;SDS011;5028;50.974;4.968;2022-07-24T01:15:45;32.17;;;26.90;;
9974;SDS011;5028;50.974;4.968;2022-07-24T01:18:21;30.87;;;27.53;;
9974;SDS011;5028;50.974;4.968;2022-07-24T01:20:51;32.60;;;29.13;;
9974;SDS011;5028;50.974;4.968;2022-07-24T01:23:25;31.83;;;28.33;;
9974;SDS011;5028;50.974;4.968;2022-07-24T01:25:53;31.60;;;28.33;;
9974;SDS011;5028;50.974;4.968;2022-07-24T01:28:28;32.93;;;29.53;;
9974;SDS011;5028;50.974;4.968;2022-07-24T01:30:56;32.40;;;28.93;;
9974;SDS011;5028;50.974;4.968;2022-07-24T01:33:31;33.73;;;30.23;;
9974;SDS011;5028;50.974;4.968;2022-07-24T01:36:01;35.13;;;30.50;;
9974;SDS011;5028;50.974;4.968;2022-07-24T01:38:35;33.23;;;29.70;;
9974;SDS011;5028;50.974;4.968;2022-07-24T01:41:10;32.17;;;28.67;;
9974;SDS011;5028;50.974;4.968;2022-07-24T01:43:38;34.03;;;29.83;;
9974;SDS011;5028;50.974;4.968;2022-07-24T01:46:13;36.73;;;32.60;;
9974;SDS011;5028;50.974;4.968;2022-07-24T01:48:55;35.47;;;31.40;;
9974;SDS011;5028;50.974;4.968;2022-07-24T01:51:31;34.80;;;30.53;;
9974;SDS011;5028;50.974;4.968;2022-07-24T01:53:59;35.20;;;31.27;;
9974;SDS011;5028;50.974;4.968;2022-07-24T01:56:35;37.00;;;31.77;;
9974;SDS011;5028;50.974;4.968;2022-07-24T01:59:04;39.20;;;34.60;;
9974;SDS011;5028;50.974;4.968;2022-07-24T02:01:40;37.00;;;33.00;;
9974;SDS011;5028;50.974;4.968;2022-07-24T02:04:08;37.87;;;33.13;;
9974;SDS011;5028;50.974;4.968;2022-07-24T02:06:45;38.50;;;33.97;;
9974;SDS011;5028;50.974;4.968;2022-07-24T02:09:13;35.23;;;31.50;;
9974;SDS011;5028;50.974;4.968;2022-07-24T02:11:48;40.03;;;35.90;;
9974;SDS011;5028;50.974;4.968;2022-07-24T02:14:16;39.07;;;34.33;;
9974;SDS011;5028;50.974;4.968;2022-07-24T02:16:52;39.90;;;33.67;;
9974;SDS011;5028;50.974;4.968;2022-07-24T02:19:20;39.80;;;35.23;;
9974;SDS011;5028;50.974;4.968;2022-07-24T02:21:57;41.53;;;36.07;;
9974;SDS011;5028;50.974;4.968;2022-07-24T02:24:25;36.30;;;32.53;;
9974;SDS011;5028;50.974;4.968;2022-07-24T02:26:59;37.73;;;33.63;;
9974;SDS011;5028;50.974;4.968;2022-07-24T02:29:29;37.27;;;31.70;;
9974;SDS011;5028;50.974;4.968;2022-07-24T02:32:03;33.77;;;30.23;;
9974;SDS011;5028;50.974;4.968;2022-07-24T02:34:40;35.57;;;31.87;;
9974;SDS011;5028;50.974;4.968;2022-07-24T02:37:29;34.03;;;30.47;;
9974;SDS011;5028;50.974;4.968;2022-07-24T02:39:57;34.43;;;30.63;;
9974;SDS011;5028;50.974;4.968;2022-07-24T02:42:32;32.20;;;28.83;;
9974;SDS011;5028;50.974;4.968;2022-07-24T02:45:01;32.13;;;28.77;;
9974;SDS011;5028;50.974;4.968;2022-07-24T02:47:35;32.43;;;29.00;;
9974;SDS011;5028;50.974;4.968;2022-07-24T02:50:20;30.93;;;27.57;;
9974;SDS011;5028;50.974;4.968;2022-07-24T02:52:58;29.70;;;26.60;;
9974;SDS011;5028;50.974;4.968;2022-07-24T02:55:26;29.73;;;26.53;;
9974;SDS011;5028;50.974;4.968;2022-07-24T02:58:01;31.13;;;27.97;;
9974;SDS011;5028;50.974;4.968;2022-07-24T03:00:33;32.17;;;28.70;;
9974;SDS011;5028;50.974;4.968;2022-07-24T03:03:07;32.20;;;28.80;;
9974;SDS011;5028;50.974;4.968;2022-07-24T03:05:35;31.07;;;27.87;;
9974;SDS011;5028;50.974;4.968;2022-07-24T03:08:12;30.23;;;27.23;;
9974;SDS011;5028;50.974;4.968;2022-07-24T03:10:40;30.47;;;27.30;;
9974;SDS011;5028;50.974;4.968;2022-07-24T03:13:14;30.23;;;27.17;;
9974;SDS011;5028;50.974;4.968;2022-07-24T03:15:43;30.00;;;26.77;;
9974;SDS011;5028;50.974;4.968;2022-07-24T03:18:18;27.47;;;24.77;;
9974;SDS011;5028;50.974;4.968;2022-07-24T03:20:48;30.57;;;26.27;;
9974;SDS011;5028;50.974;4.968;2022-07-24T03:23:25;29.63;;;26.53;;
9974;SDS011;5028;50.974;4.968;2022-07-24T03:25:53;28.37;;;25.53;;
9974;SDS011;5028;50.974;4.968;2022-07-24T03:28:27;28.80;;;25.87;;
9974;SDS011;5028;50.974;4.968;2022-07-24T03:30:56;28.67;;;25.63;;
9974;SDS011;5028;50.974;4.968;2022-07-24T03:33:32;30.90;;;27.57;;
9974;SDS011;5028;50.974;4.968;2022-07-24T03:36:01;27.57;;;24.97;;
9974;SDS011;5028;50.974;4.968;2022-07-24T03:38:38;29.83;;;26.73;;
9974;SDS011;5028;50.974;4.968;2022-07-24T03:41:06;29.83;;;27.03;;
9974;SDS011;5028;50.974;4.968;2022-07-24T03:43:40;30.93;;;26.37;;
9974;SDS011;5028;50.974;4.968;2022-07-24T03:46:08;30.47;;;27.50;;
9974;SDS011;5028;50.974;4.968;2022-07-24T03:48:51;31.93;;;28.70;;
9974;SDS011;5028;50.974;4.968;2022-07-24T03:51:19;31.93;;;28.63;;
9974;SDS011;5028;50.974;4.968;2022-07-24T03:53:56;33.53;;;30.03;;
9974;SDS011;5028;50.974;4.968;2022-07-24T03:56:24;32.57;;;29.27;;
9974;SDS011;5028;50.974;4.968;2022-07-24T03:58:58;33.13;;;29.63;;
9974;SDS011;5028;50.974;4.968;2022-07-24T04:01:27;32.27;;;29.17;;
9974;SDS011;5028;50.974;4.968;2022-07-24T04:04:02;32.80;;;29.50;;
9974;SDS011;5028;50.974;4.968;2022-07-24T04:06:32;33.60;;;30.30;;
9974;SDS011;5028;50.974;4.968;2022-07-24T04:09:08;32.93;;;29.60;;
9974;SDS011;5028;50.974;4.968;2022-07-24T04:11:36;31.90;;;28.50;;
9974;SDS011;5028;50.974;4.968;2022-07-24T04:14:11;31.87;;;28.57;;
9974;SDS011;5028;50.974;4.968;2022-07-24T04:16:40;31.30;;;28.30;;
9974;SDS011;5028;50.974;4.968;2022-07-24T04:19:15;32.93;;;29.53;;
9974;SDS011;5028;50.974;4.968;2022-07-24T04:21:43;30.47;;;27.37;;
9974;SDS011;5028;50.974;4.968;2022-07-24T04:24:19;31.30;;;28.07;;
9974;SDS011;5028;50.974;4.968;2022-07-24T04:26:47;33.00;;;29.60;;
9974;SDS011;5028;50.974;4.968;2022-07-24T04:29:21;32.53;;;29.43;;
9974;SDS011;5028;50.974;4.968;2022-07-24T04:31:50;31.40;;;28.37;;
9974;SDS011;5028;50.974;4.968;2022-07-24T04:34:24;31.97;;;28.67;;
9974;SDS011;5028;50.974;4.968;2022-07-24T04:36:53;30.73;;;27.83;;
9974;SDS011;5028;50.974;4.968;2022-07-24T04:39:29;30.87;;;27.77;;
9974;SDS011;5028;50.974;4.968;2022-07-24T04:41:57;28.90;;;26.00;;
9974;SDS011;5028;50.974;4.968;2022-07-24T04:44:31;30.30;;;27.07;;
9974;SDS011;5028;50.974;4.968;2022-07-24T04:47:00;29.37;;;26.53;;
9974;SDS011;5028;50.974;4.968;2022-07-24T04:49:34;27.00;;;24.23;;
9974;SDS011;5028;50.974;4.968;2022-07-24T04:52:10;26.80;;;24.33;;
9974;SDS011;5028;50.974;4.968;2022-07-24T04:54:46;27.40;;;24.70;;
9974;SDS011;5028;50.974;4.968;2022-07-24T04:57:14;26.37;;;23.67;;
9974;SDS011;5028;50.974;4.968;2022-07-24T04:59:49;27.50;;;24.70;;
9974;SDS011;5028;50.974;4.968;2022-07-24T05:02:17;28.43;;;25.53;;
9974;SDS011;5028;50.974;4.968;2022-07-24T05:04:55;26.10;;;23.40;;
9974;SDS011;5028;50.974;4.968;2022-07-24T05:07:24;26.60;;;23.93;;
9974;SDS011;5028;50.974;4.968;2022-07-24T05:10:00;26.37;;;23.77;;
9974;SDS011;5028;50.974;4.968;2022-07-24T05:12:28;26.33;;;23.70;;
9974;SDS011;5028;50.974;4.968;2022-07-24T05:15:04;25.07;;;22.67;;
9974;SDS011;5028;50.974;4.968;2022-07-24T05:17:33;25.53;;;22.93;;
9974;SDS011;5028;50.974;4.968;2022-07-24T05:20:09;24.47;;;22.20;;
9974;SDS011;5028;50.974;4.968;2022-07-24T05:22:40;24.57;;;22.20;;
9974;SDS011;5028;50.974;4.968;2022-07-24T05:25:16;23.97;;;21.63;;
9974;SDS011;5028;50.974;4.968;2022-07-24T05:27:50;23.00;;;20.80;;
9974;SDS011;5028;50.974;4.968;2022-07-24T05:30:20;21.83;;;19.63;;
9974;SDS011;5028;50.974;4.968;2022-07-24T05:32:54;22.87;;;20.53;;
9974;SDS011;5028;50.974;4.968;2022-07-24T05:35:22;22.87;;;20.83;;
9974;SDS011;5028;50.974;4.968;2022-07-24T05:37:57;23.17;;;20.87;;
9974;SDS011;5028;50.974;4.968;2022-07-24T05:40:27;23.13;;;20.77;;
9974;SDS011;5028;50.974;4.968;2022-07-24T05:43:01;23.23;;;21.03;;
9974;SDS011;5028;50.974;4.968;2022-07-24T05:45:29;21.73;;;19.73;;
9974;SDS011;5028;50.974;4.968;2022-07-24T05:47:58;21.50;;;19.37;;
9974;SDS011;5028;50.974;4.968;2022-07-24T05:50:32;21.60;;;19.33;;
9974;SDS011;5028;50.974;4.968;2022-07-24T05:53:07;22.80;;;20.70;;
9974;SDS011;5028;50.974;4.968;2022-07-24T05:55:37;20.87;;;18.70;;
9974;SDS011;5028;50.974;4.968;2022-07-24T05:58:11;21.07;;;18.97;;
9974;SDS011;5028;50.974;4.968;2022-07-24T06:00:40;21.10;;;18.97;;
9974;SDS011;5028;50.974;4.968;2022-07-24T06:03:20;20.53;;;18.33;;
9974;SDS011;5028;50.974;4.968;2022-07-24T06:05:49;19.73;;;17.90;;
9974;SDS011;5028;50.974;4.968;2022-07-24T06:08:26;18.60;;;16.90;;
9974;SDS011;5028;50.974;4.968;2022-07-24T06:10:56;19.03;;;17.17;;
9974;SDS011;5028;50.974;4.968;2022-07-24T06:13:31;18.40;;;16.63;;
9974;SDS011;5028;50.974;4.968;2022-07-24T06:16:00;17.27;;;15.60;;
9974;SDS011;5028;50.974;4.968;2022-07-24T06:18:35;17.73;;;15.93;;
9974;SDS011;5028;50.974;4.968;2022-07-24T06:21:03;17.37;;;15.27;;
9974;SDS011;5028;50.974;4.968;2022-07-24T06:23:38;15.47;;;14.07;;
9974;SDS011;5028;50.974;4.968;2022-07-24T06:26:08;15.50;;;13.77;;
9974;SDS011;5028;50.974;4.968;2022-07-24T06:28:42;14.20;;;12.67;;
9974;SDS011;5028;50.974;4.968;2022-07-24T06:31:11;13.87;;;12.50;;
9974;SDS011;5028;50.974;4.968;2022-07-24T06:33:46;12.60;;;11.40;;
9974;SDS011;5028;50.974;4.968;2022-07-24T06:36:14;12.97;;;11.67;;
9974;SDS011;5028;50.974;4.968;2022-07-24T06:38:49;13.33;;;12.13;;
9974;SDS011;5028;50.974;4.968;2022-07-24T06:41:19;13.00;;;11.60;;
9974;SDS011;5028;50.974;4.968;2022-07-24T06:43:53;9.97;;;8.93;;
9974;SDS011;5028;50.974;4.968;2022-07-24T06:46:24;11.67;;;10.10;;
9974;SDS011;5028;50.974;4.968;2022-07-24T06:49:05;12.03;;;10.10;;
9974;SDS011;5028;50.974;4.968;2022-07-24T06:51:34;10.57;;;9.63;;
9974;SDS011;5028;50.974;4.968;2022-07-24T06:54:08;11.03;;;9.93;;
9974;SDS011;5028;50.974;4.968;2022-07-24T06:56:38;11.23;;;10.13;;
9974;SDS011;5028;50.974;4.968;2022-07-24T06:59:17;10.67;;;9.57;;
9974;SDS011;5028;50.974;4.968;2022-07-24T07:01:45;10.10;;;9.10;;
9974;SDS011;5028;50.974;4.968;2022-07-24T07:04:21;10.60;;;8.80;;
9974;SDS011;5028;50.974;4.968;2022-07-24T07:06:49;9.87;;;8.87;;
9974;SDS011;5028;50.974;4.968;2022-07-24T07:09:23;10.23;;;8.60;;
9974;SDS011;5028;50.974;4.968;2022-07-24T07:11:54;9.13;;;8.23;;
9974;SDS011;5028;50.974;4.968;2022-07-24T07:14:29;11.57;;;9.07;;
9974;SDS011;5028;50.974;4.968;2022-07-24T07:16:57;10.53;;;9.27;;
9974;SDS011;5028;50.974;4.968;2022-07-24T07:19:31;9.73;;;8.30;;
9974;SDS011;5028;50.974;4.968;2022-07-24T07:22:00;8.37;;;7.33;;
9974;SDS011;5028;50.974;4.968;2022-07-24T07:24:36;10.00;;;8.40;;
9974;SDS011;5028;50.974;4.968;2022-07-24T07:27:11;8.73;;;7.90;;
9974;SDS011;5028;50.974;4.968;2022-07-24T07:29:45;8.60;;;7.70;;
9974;SDS011;5028;50.974;4.968;2022-07-24T07:32:14;8.77;;;7.87;;
9974;SDS011;5028;50.974;4.968;2022-07-24T07:34:51;12.47;;;7.57;;
9974;SDS011;5028;50.974;4.968;2022-07-24T07:37:22;8.03;;;6.30;;
9974;SDS011;5028;50.974;4.968;2022-07-24T07:39:56;6.83;;;6.13;;
9974;SDS011;5028;50.974;4.968;2022-07-24T07:42:27;6.80;;;5.53;;
9974;SDS011;5028;50.974;4.968;2022-07-24T07:45:02;6.70;;;4.90;;
9974;SDS011;5028;50.974;4.968;2022-07-24T07:47:31;6.27;;;5.10;;
9974;SDS011;5028;50.974;4.968;2022-07-24T07:50:12;5.87;;;4.80;;
9974;SDS011;5028;50.974;4.968;2022-07-24T07:52:40;5.77;;;4.37;;
9974;SDS011;5028;50.974;4.968;2022-07-24T07:55:17;5.63;;;4.50;;
9974;SDS011;5028;50.974;4.968;2022-07-24T07:57:48;6.30;;;4.50;;
9974;SDS011;5028;50.974;4.968;2022-07-24T08:00:32;8.07;;;4.70;;
9974;SDS011;5028;50.974;4.968;2022-07-24T08:03:01;4.53;;;4.10;;
9974;SDS011;5028;50.974;4.968;2022-07-24T08:05:36;8.93;;;4.57;;
9974;SDS011;5028;50.974;4.968;2022-07-24T08:08:04;4.90;;;3.80;;
9974;SDS011;5028;50.974;4.968;2022-07-24T08:10:40;6.03;;;4.30;;
9974;SDS011;5028;50.974;4.968;2022-07-24T08:13:10;6.07;;;4.07;;
9974;SDS011;5028;50.974;4.968;2022-07-24T08:15:45;5.87;;;4.37;;
9974;SDS011;5028;50.974;4.968;2022-07-24T08:18:13;4.90;;;4.20;;
9974;SDS011;5028;50.974;4.968;2022-07-24T08:20:48;5.90;;;3.87;;
9974;SDS011;5028;50.974;4.968;2022-07-24T08:23:21;4.93;;;3.57;;
9974;SDS011;5028;50.974;4.968;2022-07-24T08:25:55;4.47;;;3.90;;
9974;SDS011;5028;50.974;4.968;2022-07-24T08:28:25;4.97;;;3.97;;
9974;SDS011;5028;50.974;4.968;2022-07-24T08:31:00;4.33;;;3.70;;
9974;SDS011;5028;50.974;4.968;2022-07-24T08:33:28;5.43;;;3.20;;
9974;SDS011;5028;50.974;4.968;2022-07-24T08:36:03;3.77;;;3.27;;
9974;SDS011;5028;50.974;4.968;2022-07-24T08:38:31;4.93;;;3.60;;
9974;SDS011;5028;50.974;4.968;2022-07-24T08:41:06;4.03;;;3.30;;
9974;SDS011;5028;50.974;4.968;2022-07-24T08:43:36;4.23;;;3.33;;
9974;SDS011;5028;50.974;4.968;2022-07-24T08:46:11;3.60;;;3.10;;
9974;SDS011;5028;50.974;4.968;2022-07-24T08:48:42;3.60;;;3.30;;
9974;SDS011;5028;50.974;4.968;2022-07-24T08:51:27;3.00;;;2.70;;
9974;SDS011;5028;50.974;4.968;2022-07-24T08:53:59;4.18;;;2.90;;
9974;SDS011;5028;50.974;4.968;2022-07-24T08:56:35;3.63;;;2.67;;
9974;SDS011;5028;50.974;4.968;2022-07-24T08:59:15;3.22;;;2.60;;
9974;SDS011;5028;50.974;4.968;2022-07-24T09:01:52;3.40;;;2.70;;
9974;SDS011;5028;50.974;4.968;2022-07-24T09:04:34;3.53;;;2.20;;
9974;SDS011;5028;50.974;4.968;2022-07-24T09:07:10;2.58;;;2.38;;
9974;SDS011;5028;50.974;4.968;2022-07-24T09:09:40;3.15;;;2.40;;
9974;SDS011;5028;50.974;4.968;2022-07-24T09:12:16;3.67;;;2.20;;
9974;SDS011;5028;50.974;4.968;2022-07-24T09:14:47;3.95;;;2.10;;
9974;SDS011;5028;50.974;4.968;2022-07-24T09:17:22;3.95;;;2.20;;
9974;SDS011;5028;50.974;4.968;2022-07-24T09:19:52;2.60;;;2.40;;
9974;SDS011;5028;50.974;4.968;2022-07-24T09:22:32;5.00;;;2.40;;
9974;SDS011;5028;50.974;4.968;2022-07-24T09:25:10;2.30;;;2.00;;
9974;SDS011;5028;50.974;4.968;2022-07-24T09:27:47;2.60;;;2.10;;
9974;SDS011;5028;50.974;4.968;2022-07-24T09:30:29;2.25;;;2.00;;
9974;SDS011;5028;50.974;4.968;2022-07-24T09:33:05;2.95;;;1.90;;
9974;SDS011;5028;50.974;4.968;2022-07-24T09:35:42;3.50;;;2.00;;
9974;SDS011;5028;50.974;4.968;2022-07-24T09:38:12;3.22;;;2.05;;
9974;SDS011;5028;50.974;4.968;2022-07-24T09:40:50;3.50;;;2.03;;
9974;SDS011;5028;50.974;4.968;2022-07-24T09:43:23;2.10;;;2.00;;
9974;SDS011;5028;50.974;4.968;2022-07-24T09:46:03;1.95;;;1.75;;
9974;SDS011;5028;50.974;4.968;2022-07-24T09:48:40;1.80;;;1.70;;
9974;SDS011;5028;50.974;4.968;2022-07-24T09:51:26;2.15;;;1.80;;
9974;SDS011;5028;50.974;4.968;2022-07-24T09:53:56;2.67;;;2.10;;
9974;SDS011;5028;50.974;4.968;2022-07-24T09:56:32;2.10;;;1.80;;
9974;SDS011;5028;50.974;4.968;2022-07-24T09:59:03;1.73;;;1.63;;
9974;SDS011;5028;50.974;4.968;2022-07-24T10:01:41;2.20;;;1.88;;
9974;SDS011;5028;50.974;4.968;2022-07-24T10:04:12;1.60;;;1.50;;
9974;SDS011;5028;50.974;4.968;2022-07-24T10:06:50;2.03;;;1.48;;
9974;SDS011;5028;50.974;4.968;2022-07-24T10:09:21;1.70;;;1.50;;
9974;SDS011;5028;50.974;4.968;2022-07-24T10:11:58;2.50;;;1.77;;
9974;SDS011;5028;50.974;4.968;2022-07-24T10:14:28;1.90;;;1.70;;
9974;SDS011;5028;50.974;4.968;2022-07-24T10:17:07;3.10;;;1.60;;
9974;SDS011;5028;50.974;4.968;2022-07-24T10:19:50;2.25;;;1.50;;
9974;SDS011;5028;50.974;4.968;2022-07-24T10:22:48;1.70;;;1.60;;
9974;SDS011;5028;50.974;4.968;2022-07-24T10:25:27;2.78;;;1.50;;
9974;SDS011;5028;50.974;4.968;2022-07-24T10:28:08;3.38;;;1.50;;
9974;SDS011;5028;50.974;4.968;2022-07-24T10:30:42;2.17;;;1.65;;
9974;SDS011;5028;50.974;4.968;2022-07-24T10:33:18;3.17;;;1.40;;
9974;SDS011;5028;50.974;4.968;2022-07-24T10:35:46;2.40;;;1.40;;
9974;SDS011;5028;50.974;4.968;2022-07-24T10:38:26;1.90;;;1.30;;
9974;SDS011;5028;50.974;4.968;2022-07-24T10:41:02;4.10;;;1.55;;
9974;SDS011;5028;50.974;4.968;2022-07-24T10:43:40;1.75;;;1.40;;
9974;SDS011;5028;50.974;4.968;2022-07-24T10:46:11;3.97;;;1.52;;
9974;SDS011;5028;50.974;4.968;2022-07-24T10:48:50;1.52;;;1.40;;
9974;SDS011;5028;50.974;4.968;2022-07-24T10:51:25;2.45;;;1.35;;
9974;SDS011;5028;50.974;4.968;2022-07-24T10:54:00;1.70;;;1.38;;
9974;SDS011;5028;50.974;4.968;2022-07-24T10:56:37;2.30;;;1.50;;
9974;SDS011;5028;50.974;4.968;2022-07-24T10:59:14;1.98;;;1.48;;
9974;SDS011;5028;50.974;4.968;2022-07-24T11:01:57;3.38;;;2.00;;
9974;SDS011;5028;50.974;4.968;2022-07-24T11:11:10;1.58;;;1.38;;
9974;SDS011;5028;50.974;4.968;2022-07-24T11:13:43;2.78;;;1.23;;
9974;SDS011;5028;50.974;4.968;2022-07-24T11:16:23;1.30;;;1.20;;
9974;SDS011;5028;50.974;4.968;2022-07-24T11:22:05;1.33;;;1.10;;
9974;SDS011;5028;50.974;4.968;2022-07-24T11:24:34;3.08;;;1.30;;
9974;SDS011;5028;50.974;4.968;2022-07-24T11:27:14;1.48;;;1.20;;
9974;SDS011;5028;50.974;4.968;2022-07-24T11:29:45;2.47;;;1.30;;
9974;SDS011;5028;50.974;4.968;2022-07-24T11:32:25;2.50;;;1.30;;
9974;SDS011;5028;50.974;4.968;2022-07-24T11:34:57;2.38;;;1.20;;
9974;SDS011;5028;50.974;4.968;2022-07-24T11:37:34;1.55;;;1.20;;
9974;SDS011;5028;50.974;4.968;2022-07-24T11:40:04;3.97;;;1.20;;
9974;SDS011;5028;50.974;4.968;2022-07-24T11:42:40;1.60;;;1.33;;
9974;SDS011;5028;50.974;4.968;2022-07-24T11:45:08;1.58;;;1.20;;
9974;SDS011;5028;50.974;4.968;2022-07-24T11:47:51;1.95;;;1.13;;
9974;SDS011;5028;50.974;4.968;2022-07-24T11:50:34;1.73;;;1.20;;
9974;SDS011;5028;50.974;4.968;2022-07-24T11:53:09;2.53;;;1.00;;
9974;SDS011;5028;50.974;4.968;2022-07-24T11:55:37;1.90;;;1.02;;
9974;SDS011;5028;50.974;4.968;2022-07-24T11:58:12;2.45;;;1.20;;
9974;SDS011;5028;50.974;4.968;2022-07-24T12:01:05;1.52;;;1.10;;
9974;SDS011;5028;50.974;4.968;2022-07-24T12:03:53;1.83;;;0.90;;
9974;SDS011;5028;50.974;4.968;2022-07-24T12:06:28;1.98;;;1.00;;
9974;SDS011;5028;50.974;4.968;2022-07-24T12:09:07;1.08;;;0.98;;
9974;SDS011;5028;50.974;4.968;2022-07-24T12:11:35;1.25;;;1.00;;
9974;SDS011;5028;50.974;4.968;2022-07-24T12:14:14;3.53;;;0.90;;
9974;SDS011;5028;50.974;4.968;2022-07-24T12:16:42;1.25;;;1.00;;
9974;SDS011;5028;50.974;4.968;2022-07-24T12:19:18;1.85;;;1.10;;
9974;SDS011;5028;50.974;4.968;2022-07-24T12:21:50;1.55;;;0.90;;
9974;SDS011;5028;50.974;4.968;2022-07-24T12:24:26;1.75;;;0.90;;
9974;SDS011;5028;50.974;4.968;2022-07-24T12:26:58;0.90;;;0.85;;
9974;SDS011;5028;50.974;4.968;2022-07-24T12:29:33;1.60;;;0.85;;
9974;SDS011;5028;50.974;4.968;2022-07-24T12:32:13;1.30;;;0.93;;
9974;SDS011;5028;50.974;4.968;2022-07-24T12:34:49;1.33;;;1.13;;
9974;SDS011;5028;50.974;4.968;2022-07-24T12:37:38;1.10;;;0.85;;
9974;SDS011;5028;50.974;4.968;2022-07-24T12:40:21;1.27;;;0.88;;
9974;SDS011;5028;50.974;4.968;2022-07-24T12:42:55;2.00;;;1.10;;
9974;SDS011;5028;50.974;4.968;2022-07-24T12:45:31;1.10;;;1.00;;
9974;SDS011;5028;50.974;4.968;2022-07-24T12:50:59;0.98;;;0.80;;
9974;SDS011;5028;50.974;4.968;2022-07-24T12:53:31;1.20;;;1.10;;
9974;SDS011;5028;50.974;4.968;2022-07-24T12:56:08;1.33;;;1.00;;
9974;SDS011;5028;50.974;4.968;2022-07-24T12:58:47;1.33;;;0.98;;
9974;SDS011;5028;50.974;4.968;2022-07-24T13:01:46;1.60;;;1.08;;
9974;SDS011;5028;50.974;4.968;2022-07-24T13:04:16;1.75;;;1.05;;
9974;SDS011;5028;50.974;4.968;2022-07-24T13:06:53;1.48;;;0.98;;
9974;SDS011;5028;50.974;4.968;2022-07-24T13:09:24;1.33;;;1.05;;
9974;SDS011;5028;50.974;4.968;2022-07-24T13:12:04;1.02;;;0.93;;
9974;SDS011;5028;50.974;4.968;2022-07-24T13:14:33;2.35;;;1.30;;
9974;SDS011;5028;50.974;4.968;2022-07-24T13:17:08;1.45;;;1.05;;
9974;SDS011;5028;50.974;4.968;2022-07-24T13:19:38;2.05;;;1.02;;
9974;SDS011;5028;50.974;4.968;2022-07-24T13:22:14;2.75;;;1.33;;
9974;SDS011;5028;50.974;4.968;2022-07-24T13:24:44;1.45;;;1.30;;
9974;SDS011;5028;50.974;4.968;2022-07-24T13:27:19;1.40;;;1.30;;
9974;SDS011;5028;50.974;4.968;2022-07-24T13:29:47;1.52;;;1.30;;
9974;SDS011;5028;50.974;4.968;2022-07-24T13:32:23;2.30;;;1.35;;
9974;SDS011;5028;50.974;4.968;2022-07-24T13:34:51;2.33;;;1.48;;
9974;SDS011;5028;50.974;4.968;2022-07-24T13:37:26;2.17;;;1.50;;
9974;SDS011;5028;50.974;4.968;2022-07-24T13:39:55;1.50;;;1.30;;
9974;SDS011;5028;50.974;4.968;2022-07-24T13:42:31;2.67;;;1.60;;
9974;SDS011;5028;50.974;4.968;2022-07-24T13:45:06;2.47;;;1.38;;
9974;SDS011;5028;50.974;4.968;2022-07-24T13:47:42;2.63;;;1.40;;
9974;SDS011;5028;50.974;4.968;2022-07-24T13:50:16;1.60;;;1.40;;
9974;SDS011;5028;50.974;4.968;2022-07-24T13:52:51;1.80;;;1.50;;
9974;SDS011;5028;50.974;4.968;2022-07-24T13:55:28;1.70;;;1.50;;
9974;SDS011;5028;50.974;4.968;2022-07-24T13:57:58;3.72;;;1.50;;
9974;SDS011;5028;50.974;4.968;2022-07-24T14:00:33;4.05;;;1.70;;
9974;SDS011;5028;50.974;4.968;2022-07-24T14:03:01;1.58;;;1.48;;
9974;SDS011;5028;50.974;4.968;2022-07-24T14:05:56;3.00;;;1.60;;
9974;SDS011;5028;50.974;4.968;2022-07-24T14:08:27;1.95;;;1.58;;
9974;SDS011;5028;50.974;4.968;2022-07-24T14:11:03;1.55;;;1.42;;
9974;SDS011;5028;50.974;4.968;2022-07-24T14:13:31;1.83;;;1.40;;
9974;SDS011;5028;50.974;4.968;2022-07-24T14:16:06;2.47;;;1.90;;
9974;SDS011;5028;50.974;4.968;2022-07-24T14:18:34;2.97;;;1.50;;
9974;SDS011;5028;50.974;4.968;2022-07-24T14:21:09;2.40;;;1.60;;
9974;SDS011;5028;50.974;4.968;2022-07-24T14:23:37;3.67;;;1.55;;
9974;SDS011;5028;50.974;4.968;2022-07-24T14:26:13;1.83;;;1.52;;
9974;SDS011;5028;50.974;4.968;2022-07-24T14:28:41;2.67;;;1.60;;
9974;SDS011;5028;50.974;4.968;2022-07-24T14:31:16;1.52;;;1.40;;
9974;SDS011;5028;50.974;4.968;2022-07-24T14:33:44;2.20;;;1.60;;
9974;SDS011;5028;50.974;4.968;2022-07-24T14:36:19;2.35;;;1.50;;
9974;SDS011;5028;50.974;4.968;2022-07-24T14:38:47;1.52;;;1.40;;
9974;SDS011;5028;50.974;4.968;2022-07-24T14:41:23;1.65;;;1.55;;
9974;SDS011;5028;50.974;4.968;2022-07-24T14:43:51;3.53;;;1.80;;
9974;SDS011;5028;50.974;4.968;2022-07-24T14:46:31;1.63;;;1.52;;
9974;SDS011;5028;50.974;4.968;2022-07-24T14:49:07;1.88;;;1.70;;
9974;SDS011;5028;50.974;4.968;2022-07-24T14:51:42;3.38;;;1.70;;
9974;SDS011;5028;50.974;4.968;2022-07-24T14:54:17;2.88;;;1.67;;
9974;SDS011;5028;50.974;4.968;2022-07-24T14:56:53;2.53;;;1.67;;
9974;SDS011;5028;50.974;4.968;2022-07-24T14:59:23;4.47;;;1.80;;
9974;SDS011;5028;50.974;4.968;2022-07-24T15:01:57;2.88;;;2.00;;
9974;SDS011;5028;50.974;4.968;2022-07-24T15:04:25;2.90;;;1.85;;
9974;SDS011;5028;50.974;4.968;2022-07-24T15:07:00;2.38;;;1.92;;
9974;SDS011;5028;50.974;4.968;2022-07-24T15:09:30;5.35;;;1.83;;
9974;SDS011;5028;50.974;4.968;2022-07-24T15:12:07;2.08;;;1.80;;
9974;SDS011;5028;50.974;4.968;2022-07-24T15:14:35;2.47;;;1.73;;
9974;SDS011;5028;50.974;4.968;2022-07-24T15:17:10;2.35;;;2.00;;
9974;SDS011;5028;50.974;4.968;2022-07-24T15:19:38;3.33;;;2.00;;
9974;SDS011;5028;50.974;4.968;2022-07-24T15:22:13;2.10;;;1.65;;
9974;SDS011;5028;50.974;4.968;2022-07-24T15:24:41;5.63;;;2.10;;
9974;SDS011;5028;50.974;4.968;2022-07-24T15:27:17;2.22;;;2.03;;
9974;SDS011;5028;50.974;4.968;2022-07-24T15:29:45;2.40;;;2.20;;
9974;SDS011;5028;50.974;4.968;2022-07-24T15:32:21;3.33;;;2.20;;
9974;SDS011;5028;50.974;4.968;2022-07-24T15:34:49;2.20;;;2.10;;
9974;SDS011;5028;50.974;4.968;2022-07-24T15:37:26;2.50;;;2.30;;
9974;SDS011;5028;50.974;4.968;2022-07-24T15:39:54;4.68;;;2.20;;
9974;SDS011;5028;50.974;4.968;2022-07-24T15:42:30;4.55;;;2.15;;
9974;SDS011;5028;50.974;4.968;2022-07-24T15:44:58;2.90;;;2.17;;
9974;SDS011;5028;50.974;4.968;2022-07-24T15:47:33;2.70;;;2.38;;
9974;SDS011;5028;50.974;4.968;2022-07-24T15:50:08;4.05;;;2.38;;
9974;SDS011;5028;50.974;4.968;2022-07-24T15:52:43;3.00;;;2.30;;
9974;SDS011;5028;50.974;4.968;2022-07-24T15:55:11;4.18;;;2.40;;